ZWWW/URC METAR and TAF weather

Enter ICAO airport designator
Station Type Date Time Source
ZWWW METAR 2022/01/26 13:30 UTC NOAA

ZWWW 261330Z 02001MPS 2500 BR NSC M16/M17 Q1032 NOSIG


Station Type Date Time Source
ZWWW Decoded METAR 2022/01/26 13:30 UTC NOAA

Urum-Qi / Diwopu, China (ZWWW) 43-54N 087-28E
Jan 26, 2022 - 08:30 AM EST / 2022.01.26 1330 UTC
Wind: from the NNE (020 degrees) at 2 MPH (2 KT):0
Visibility: 1 mile(s):0
Weather: mist
Temperature: 3 F (-16 C)
Dew Point: 1 F (-17 C)
Relative Humidity: 91%
Pressure (altimeter): 30.47 in. Hg (1032 hPa)
ob: ZWWW 261330Z 02001MPS 2500 BR NSC M16/M17 Q1032 NOSIG
cycle: 13

Station Type Date Time Source
ZWWW TAF 2022/01/26 12:03 UTC NOAA

TAF ZWWW 260904Z 2612/2712 36002MPS 3000 BR BKN016 TXM10/2709Z TNM15/2623Z
BECMG 2615/2616 1600

Example: see airport list